Aviation Digital Data Service (ADDS)

Output produced by METARs form (1600 UTC 19 November 2017)
found at http://aviationweather.gov/adds/metars/
 
KUTS 191120Z 1912/2012 36006KT P6SM FEW250 
     FM200000 00000KT P6SM SCT250